x

Cape Cleare - 17 Nm South Of Montague Is, Ak (46076) Wave Buoy

10:50am - Wed 22nd Nov 2017 All times are AKST. -9 hours from GMT.

  • Sig Wave height 5.6ft
  • Swell Direction
  • Peak Period 9s
  • Average Period 6s
  • Wind
    13mph, 18mph gusts
  • Sea Temp 46°f
  • Air Temp 37°f
  • Sea Pressure 1001.8mb
  • Cape Cleare - 17 Nm South Of Montague Is,  Ak
  • Cape Cleare - 17 Nm South Of Montague Is,  Ak

More Historic Weather Station data

Upgrade to MSW Pro to gain access to the past 30 days of data for over 8000 Wavebouys and Weather Stations around the globe.

Join

Comparision Forecast

View Surf forecast
   
Wed 11/22 10:50am 5.5ft 9s 6s 13 18 mph 1001.8mb 46f 37f
9:50am 5ft 6s 6s 16 20 mph 1002.4mb 46f 37f
8:50am 5ft 10s 6s 13 18 mph 1002.6mb 46f 37f
7:50am 5.5ft 7s 6s 16 18 mph 1002.7mb 46f 37f
6:50am 5.5ft 6s 6s 13 18 mph 1002.7mb 46f 38f
5:50am 5ft 9s 6s 9 13 mph 1003.4mb 46f 37f
4:50am 5ft 10s 6s 13 18 mph 1004.1mb 46f 38f
3:50am 5ft 10s 6s 16 20 mph 1004.2mb 46f 38f
2:50am 5ft 9s 7s 13 20 mph 1004.8mb 47f 38f
1:50am 5ft 9s 7s 4 9 mph 1005.5mb 47f 37f
12:50am 5ft 10s 7s 16 20 mph 1006.1mb 47f 38f
Tue 11/21 11:50pm 5ft 11s 7s 9 16 mph 1006.7mb 47f 38f
6:50pm 8ft 11s 8s 9 11 mph 1008.4mb 46f 37f
5:50pm 9ft 11s 8s 7 11 mph 1008.4mb 46f 38f
4:50pm 8ft 11s 8s 7 11 mph 1008.7mb 46f 38f
3:50pm 9.5ft 11s 8s 7 11 mph 1009.4mb 46f 38f
2:50pm 10ft 11s 8s 7 9 mph 1009.9mb 46f 38f
1:50pm 10.5ft 11s 9s 7 11 mph 1010.4mb 46f 39f
12:50pm 9.5ft 11s 8s 7 11 mph 1011mb 47f 39f
11:50am 10ft 10s 9s 7 11 mph 1011.3mb 46f 39f
10:50am 11ft 11s 9s 7 11 mph 1011.6mb 46f 39f
9:50am 11ft 12s 9s 9 13 mph 1011.4mb 46f 39f
8:50am 11ft 11s 9s 11 16 mph 1011.1mb 47f 39f
7:50am 10ft 12s 8s 9 13 mph 1011.2mb 46f 39f
6:50am 12ft 11s 9s 7 13 mph 1011mb 46f 39f
5:50am 15ft 12s 10s 9 13 mph 1011.1mb 46f 39f
4:50am 14ft 12s 9s 11 16 mph 1010.7mb 46f 39f
3:50am 15.5ft 12s 9s 13 16 mph 1010.5mb 46f 39f
2:50am 13ft 12s 9s 16 20 mph 1010mb 46f 39f
1:50am 12.5ft 12s 9s 13 18 mph 1009.9mb 46f 39f
12:50am 13ft 12s 9s 16 25 mph 1009.3mb 46f 39f
Mon 11/20 11:50pm 10ft 12s 8s 16 20 mph 1009.1mb 46f 39f
10:50pm 11ft 11s 8s 18 22 mph 1008.9mb 46f 39f
9:50pm 13ft 12s 8s 16 22 mph 1008.5mb 46f 39f
8:50pm 15.5ft 12s 8s 18 25 mph 1007.8mb 46f 39f
7:50pm 16.5ft 13s 9s 22 27 mph 1006.9mb 46f 39f
6:50pm 18.5ft 13s 9s 22 29 mph 1006.3mb 46f 39f
5:50pm 16.5ft 13s 8s 22 29 mph 1005.4mb 46f 39f
4:50pm 18.5ft 12s 9s 25 29 mph 1004.6mb 46f 40f
3:50pm 17.5ft 12s 9s 27 31 mph 1003.5mb 47f 40f
2:50pm 20ft 12s 9s 27 31 mph 1002.9mb 47f 40f
1:50pm 18ft 12s 9s 25 31 mph 1002.4mb 47f 41f
12:50pm 19.5ft 12s 9s 25 31 mph 1001.9mb 47f 42f
11:50am 19ft 12s 9s 27 34 mph 1001.3mb 47f 42f
10:50am 19ft 11s 9s 29 36 mph 1000.5mb 47f 42f
9:50am 20ft 11s 9s 31 40 mph 999.5mb 47f 41f
8:50am 20.5ft 11s 8s 36 43 mph 998.2mb 47f 40f
7:50am 20.5ft 11s 8s 36 45 mph 996.7mb 47f 41f
6:50am 18ft 11s 8s 38 45 mph 995.2mb 47f 40f
5:50am 17ft 10s 7s 40 49 mph 993.8mb 47f 39f
4:50am 16.5ft 10s 7s 40 49 mph 992.5mb 47f 38f
3:50am 16.5ft 9s 7s 40 47 mph 991.5mb 47f 38f
2:50am 15ft 9s 7s 40 49 mph 990.6mb 47f 37f
1:50am 14ft 8s 7s 40 51 mph 989.7mb 46f 37f
12:50am 11ft 8s 6s 40 49 mph 988.9mb 46f 38f
Sun 11/19 11:50pm 12ft 8s 6s 38 47 mph 988.8mb 46f 37f
10:50pm 11ft 8s 6s 36 45 mph 988.5mb 46f 37f
9:50pm 10.5ft 8s 6s 38 47 mph 988mb 46f 37f
8:50pm 9ft 8s 6s 36 43 mph 987.7mb 46f 36f
7:50pm 7ft 6s 5s 36 45 mph 987.1mb 46f 38f
6:50pm 5ft 6s 5s 22 25 mph 987.9mb 46f 35f
5:50pm 5ft 7s 5s 22 29 mph 987.6mb 46f 36f
4:50pm 5ft 6s 5s 22 27 mph 987.5mb 46f 35f
3:50pm 5ft 6s 5s 27 34 mph 987.1mb 46f 35f
2:50pm 5ft 5s 5s 27 31 mph 987.8mb 46f 34f
1:50pm 5ft 5s 5s 25 31 mph 988.4mb 46f 34f
12:50pm 4.5ft 4s 4s 27 34 mph 989mb 46f 34f
11:50am 4.5ft 4s 4s 25 29 mph 990mb 46f 33f
10:50am 4ft 4s 4s 25 27 mph 990.8mb 46f 33f
9:50am 4ft 4s 4s 22 27 mph 991.4mb 46f 33f
8:50am 4ft 4s 4s 25 29 mph 991.6mb 47f 32f
7:50am 4ft 6s 4s 22 27 mph 992.7mb 46f 32f
6:50am 3.5ft 6s 5s 22 27 mph 994mb 46f 32f
5:50am 3.5ft 6s 5s 13 20 mph 996mb 46f 32f
4:50am 3.5ft 6s 6s 9 16 mph 997.8mb 46f 32f
3:50am 3.5ft 8s 6s 7 18 mph 998.6mb 47f 36f
2:50am 3.5ft 7s 6s 7 11 mph 999.9mb 46f 37f
1:50am 3ft 7s 6s 7 9 mph 1001.3mb 46f 37f
12:50am 3.5ft 8s 6s 4 7 mph 1002.5mb 46f 36f
Sat 11/18 11:50pm 3.5ft 8s 6s  -  2 mph 1003.9mb 46f 36f
10:50pm 3.5ft 6s 6s  -  2 mph 1005mb 46f 36f
9:50pm 3.5ft 8s 6s 2 4 mph 1005.7mb 46f 36f